sensor_id;sensor_type;location;lat;lon;timestamp;P1;durP1;ratioP1;P2;durP2;ratioP2
41861;SDS011;27537;57.134;-2.136;2022-07-29T00:00:00;10.40;;;4.38;;
41861;SDS011;27537;57.134;-2.136;2022-07-29T00:02:27;10.10;;;4.45;;
41861;SDS011;27537;57.134;-2.136;2022-07-29T00:04:54;10.48;;;4.00;;
41861;SDS011;27537;57.134;-2.136;2022-07-29T00:07:21;11.02;;;4.85;;
41861;SDS011;27537;57.134;-2.136;2022-07-29T00:09:48;11.57;;;4.65;;
41861;SDS011;27537;57.134;-2.136;2022-07-29T00:12:18;16.85;;;6.40;;
41861;SDS011;27537;57.134;-2.136;2022-07-29T00:14:55;13.38;;;6.78;;
41861;SDS011;27537;57.134;-2.136;2022-07-29T00:17:23;13.85;;;5.78;;
41861;SDS011;27537;57.134;-2.136;2022-07-29T00:19:50;11.48;;;5.60;;
41861;SDS011;27537;57.134;-2.136;2022-07-29T00:22:17;13.00;;;6.38;;
41861;SDS011;27537;57.134;-2.136;2022-07-29T00:24:44;11.40;;;4.70;;
41861;SDS011;27537;57.134;-2.136;2022-07-29T00:27:11;13.95;;;5.75;;
41861;SDS011;27537;57.134;-2.136;2022-07-29T00:29:37;13.35;;;5.72;;
41861;SDS011;27537;57.134;-2.136;2022-07-29T00:32:04;14.95;;;6.07;;
41861;SDS011;27537;57.134;-2.136;2022-07-29T00:34:31;10.77;;;5.53;;
41861;SDS011;27537;57.134;-2.136;2022-07-29T00:37:17;13.43;;;6.13;;
41861;SDS011;27537;57.134;-2.136;2022-07-29T00:39:43;12.15;;;5.75;;
41861;SDS011;27537;57.134;-2.136;2022-07-29T00:42:10;9.70;;;5.05;;
41861;SDS011;27537;57.134;-2.136;2022-07-29T00:44:40;12.35;;;5.00;;
41861;SDS011;27537;57.134;-2.136;2022-07-29T00:47:08;13.70;;;5.10;;
41861;SDS011;27537;57.134;-2.136;2022-07-29T00:49:36;11.35;;;5.80;;
41861;SDS011;27537;57.134;-2.136;2022-07-29T00:52:06;12.63;;;5.60;;
41861;SDS011;27537;57.134;-2.136;2022-07-29T00:54:34;11.70;;;5.18;;
41861;SDS011;27537;57.134;-2.136;2022-07-29T00:57:09;10.80;;;5.03;;
41861;SDS011;27537;57.134;-2.136;2022-07-29T00:59:37;11.65;;;4.35;;
41861;SDS011;27537;57.134;-2.136;2022-07-29T01:02:04;14.27;;;5.28;;
41861;SDS011;27537;57.134;-2.136;2022-07-29T01:04:31;10.50;;;4.55;;
41861;SDS011;27537;57.134;-2.136;2022-07-29T01:07:00;10.15;;;4.10;;
41861;SDS011;27537;57.134;-2.136;2022-07-29T01:09:28;11.25;;;4.75;;
41861;SDS011;27537;57.134;-2.136;2022-07-29T01:12:10;13.43;;;5.93;;
41861;SDS011;27537;57.134;-2.136;2022-07-29T01:14:39;11.23;;;5.10;;
41861;SDS011;27537;57.134;-2.136;2022-07-29T01:17:18;14.07;;;5.43;;
41861;SDS011;27537;57.134;-2.136;2022-07-29T01:30:56;13.95;;;4.70;;
41861;SDS011;27537;57.134;-2.136;2022-07-29T01:33:24;13.23;;;5.43;;
41861;SDS011;27537;57.134;-2.136;2022-07-29T01:36:13;11.52;;;5.38;;
41861;SDS011;27537;57.134;-2.136;2022-07-29T01:38:44;13.00;;;5.53;;
41861;SDS011;27537;57.134;-2.136;2022-07-29T01:43:53;9.73;;;4.88;;
41861;SDS011;27537;57.134;-2.136;2022-07-29T01:46:37;11.30;;;4.85;;
41861;SDS011;27537;57.134;-2.136;2022-07-29T01:49:08;10.50;;;4.63;;
41861;SDS011;27537;57.134;-2.136;2022-07-29T01:51:41;13.27;;;5.45;;
41861;SDS011;27537;57.134;-2.136;2022-07-29T01:54:16;12.82;;;5.20;;
41861;SDS011;27537;57.134;-2.136;2022-07-29T01:56:48;11.82;;;4.93;;
41861;SDS011;27537;57.134;-2.136;2022-07-29T01:59:17;11.38;;;5.38;;
41861;SDS011;27537;57.134;-2.136;2022-07-29T02:01:47;12.35;;;5.00;;
41861;SDS011;27537;57.134;-2.136;2022-07-29T02:04:20;12.40;;;4.57;;
41861;SDS011;27537;57.134;-2.136;2022-07-29T02:06:56;12.57;;;6.18;;
41861;SDS011;27537;57.134;-2.136;2022-07-29T02:09:26;12.00;;;4.80;;
41861;SDS011;27537;57.134;-2.136;2022-07-29T02:11:56;9.45;;;4.35;;
41861;SDS011;27537;57.134;-2.136;2022-07-29T02:14:25;11.50;;;4.60;;
41861;SDS011;27537;57.134;-2.136;2022-07-29T02:16:54;13.40;;;4.60;;
41861;SDS011;27537;57.134;-2.136;2022-07-29T02:19:24;12.07;;;5.22;;
41861;SDS011;27537;57.134;-2.136;2022-07-29T02:21:53;11.65;;;4.95;;
41861;SDS011;27537;57.134;-2.136;2022-07-29T02:24:23;11.68;;;4.43;;
41861;SDS011;27537;57.134;-2.136;2022-07-29T02:26:52;14.45;;;4.55;;
41861;SDS011;27537;57.134;-2.136;2022-07-29T02:29:22;10.65;;;4.72;;
41861;SDS011;27537;57.134;-2.136;2022-07-29T02:31:51;12.23;;;4.65;;
41861;SDS011;27537;57.134;-2.136;2022-07-29T02:34:20;11.15;;;4.22;;
41861;SDS011;27537;57.134;-2.136;2022-07-29T02:36:48;9.60;;;4.88;;
41861;SDS011;27537;57.134;-2.136;2022-07-29T02:39:15;9.82;;;3.85;;
41861;SDS011;27537;57.134;-2.136;2022-07-29T02:41:45;7.82;;;3.25;;
41861;SDS011;27537;57.134;-2.136;2022-07-29T02:44:15;14.80;;;5.45;;
41861;SDS011;27537;57.134;-2.136;2022-07-29T02:46:48;10.98;;;4.72;;
41861;SDS011;27537;57.134;-2.136;2022-07-29T02:49:23;8.95;;;4.00;;
41861;SDS011;27537;57.134;-2.136;2022-07-29T02:52:02;14.43;;;4.18;;
41861;SDS011;27537;57.134;-2.136;2022-07-29T02:54:56;13.45;;;4.65;;
41861;SDS011;27537;57.134;-2.136;2022-07-29T02:57:35;9.80;;;4.28;;
41861;SDS011;27537;57.134;-2.136;2022-07-29T03:00:29;7.38;;;3.25;;
41861;SDS011;27537;57.134;-2.136;2022-07-29T03:03:01;11.45;;;3.60;;
41861;SDS011;27537;57.134;-2.136;2022-07-29T03:08:04;7.57;;;3.30;;
41861;SDS011;27537;57.134;-2.136;2022-07-29T03:10:32;10.90;;;3.90;;
41861;SDS011;27537;57.134;-2.136;2022-07-29T03:13:00;7.93;;;2.90;;
41861;SDS011;27537;57.134;-2.136;2022-07-29T03:15:28;9.50;;;3.30;;
41861;SDS011;27537;57.134;-2.136;2022-07-29T03:17:55;10.88;;;3.47;;
41861;SDS011;27537;57.134;-2.136;2022-07-29T03:20:22;10.18;;;3.85;;
41861;SDS011;27537;57.134;-2.136;2022-07-29T03:22:49;11.48;;;4.47;;
41861;SDS011;27537;57.134;-2.136;2022-07-29T03:25:17;11.43;;;4.38;;
41861;SDS011;27537;57.134;-2.136;2022-07-29T03:27:46;10.82;;;3.92;;
41861;SDS011;27537;57.134;-2.136;2022-07-29T03:30:13;9.50;;;4.05;;
41861;SDS011;27537;57.134;-2.136;2022-07-29T03:32:47;10.93;;;4.30;;
41861;SDS011;27537;57.134;-2.136;2022-07-29T03:35:17;11.52;;;4.18;;
41861;SDS011;27537;57.134;-2.136;2022-07-29T03:37:46;8.98;;;3.65;;
41861;SDS011;27537;57.134;-2.136;2022-07-29T03:40:18;9.25;;;3.90;;
41861;SDS011;27537;57.134;-2.136;2022-07-29T03:42:48;11.50;;;3.85;;
41861;SDS011;27537;57.134;-2.136;2022-07-29T03:45:18;8.40;;;4.00;;
41861;SDS011;27537;57.134;-2.136;2022-07-29T03:47:47;8.80;;;3.78;;
41861;SDS011;27537;57.134;-2.136;2022-07-29T03:50:22;12.68;;;4.05;;
41861;SDS011;27537;57.134;-2.136;2022-07-29T03:52:49;11.02;;;4.00;;
41861;SDS011;27537;57.134;-2.136;2022-07-29T03:55:17;9.35;;;3.53;;
41861;SDS011;27537;57.134;-2.136;2022-07-29T03:57:44;10.82;;;3.90;;
41861;SDS011;27537;57.134;-2.136;2022-07-29T04:00:13;8.52;;;3.88;;
41861;SDS011;27537;57.134;-2.136;2022-07-29T04:02:43;8.85;;;3.30;;
41861;SDS011;27537;57.134;-2.136;2022-07-29T04:07:45;8.35;;;3.35;;
41861;SDS011;27537;57.134;-2.136;2022-07-29T04:10:14;7.70;;;3.45;;
41861;SDS011;27537;57.134;-2.136;2022-07-29T04:12:57;15.55;;;4.00;;
41861;SDS011;27537;57.134;-2.136;2022-07-29T04:15:23;8.68;;;3.72;;
41861;SDS011;27537;57.134;-2.136;2022-07-29T04:17:50;10.23;;;4.05;;
41861;SDS011;27537;57.134;-2.136;2022-07-29T04:20:17;10.30;;;4.25;;
41861;SDS011;27537;57.134;-2.136;2022-07-29T04:22:44;13.90;;;4.13;;
41861;SDS011;27537;57.134;-2.136;2022-07-29T04:25:11;10.75;;;4.00;;
41861;SDS011;27537;57.134;-2.136;2022-07-29T04:27:38;9.40;;;4.28;;
41861;SDS011;27537;57.134;-2.136;2022-07-29T04:30:24;11.38;;;4.72;;
41861;SDS011;27537;57.134;-2.136;2022-07-29T04:32:51;12.55;;;4.38;;
41861;SDS011;27537;57.134;-2.136;2022-07-29T04:35:19;10.50;;;4.63;;
41861;SDS011;27537;57.134;-2.136;2022-07-29T04:37:46;13.93;;;5.53;;
41861;SDS011;27537;57.134;-2.136;2022-07-29T04:40:13;10.68;;;4.72;;
41861;SDS011;27537;57.134;-2.136;2022-07-29T04:42:40;11.60;;;5.28;;
41861;SDS011;27537;57.134;-2.136;2022-07-29T04:45:11;11.43;;;5.00;;
41861;SDS011;27537;57.134;-2.136;2022-07-29T04:47:39;10.95;;;4.63;;
41861;SDS011;27537;57.134;-2.136;2022-07-29T04:50:07;12.57;;;4.75;;
41861;SDS011;27537;57.134;-2.136;2022-07-29T04:52:35;15.40;;;6.40;;
41861;SDS011;27537;57.134;-2.136;2022-07-29T04:55:03;16.65;;;6.82;;
41861;SDS011;27537;57.134;-2.136;2022-07-29T04:57:30;13.48;;;6.13;;
41861;SDS011;27537;57.134;-2.136;2022-07-29T04:59:57;11.65;;;6.32;;
41861;SDS011;27537;57.134;-2.136;2022-07-29T05:02:24;12.80;;;6.10;;
41861;SDS011;27537;57.134;-2.136;2022-07-29T05:04:51;14.05;;;5.20;;
41861;SDS011;27537;57.134;-2.136;2022-07-29T05:07:17;13.73;;;5.50;;
41861;SDS011;27537;57.134;-2.136;2022-07-29T05:09:44;11.40;;;4.60;;
41861;SDS011;27537;57.134;-2.136;2022-07-29T05:12:11;13.88;;;5.68;;
41861;SDS011;27537;57.134;-2.136;2022-07-29T05:14:38;12.02;;;5.18;;
41861;SDS011;27537;57.134;-2.136;2022-07-29T05:17:05;11.45;;;5.05;;
41861;SDS011;27537;57.134;-2.136;2022-07-29T05:19:32;12.65;;;4.78;;
41861;SDS011;27537;57.134;-2.136;2022-07-29T05:22:04;11.73;;;4.13;;
41861;SDS011;27537;57.134;-2.136;2022-07-29T05:24:31;11.32;;;4.47;;
41861;SDS011;27537;57.134;-2.136;2022-07-29T05:26:59;15.15;;;4.95;;
41861;SDS011;27537;57.134;-2.136;2022-07-29T05:29:25;10.68;;;4.32;;
41861;SDS011;27537;57.134;-2.136;2022-07-29T05:32:10;15.38;;;5.10;;
41861;SDS011;27537;57.134;-2.136;2022-07-29T05:34:39;12.60;;;4.78;;
41861;SDS011;27537;57.134;-2.136;2022-07-29T05:37:16;12.65;;;5.35;;
41861;SDS011;27537;57.134;-2.136;2022-07-29T05:39:44;11.98;;;3.50;;
41861;SDS011;27537;57.134;-2.136;2022-07-29T05:42:15;14.73;;;4.60;;
41861;SDS011;27537;57.134;-2.136;2022-07-29T05:44:42;11.93;;;3.95;;
41861;SDS011;27537;57.134;-2.136;2022-07-29T05:47:09;13.15;;;4.38;;
41861;SDS011;27537;57.134;-2.136;2022-07-29T05:49:36;13.15;;;4.85;;
41861;SDS011;27537;57.134;-2.136;2022-07-29T05:52:03;13.70;;;3.53;;
41861;SDS011;27537;57.134;-2.136;2022-07-29T05:54:30;9.70;;;3.63;;
41861;SDS011;27537;57.134;-2.136;2022-07-29T05:56:57;11.57;;;3.45;;
41861;SDS011;27537;57.134;-2.136;2022-07-29T05:59:24;8.18;;;2.72;;
41861;SDS011;27537;57.134;-2.136;2022-07-29T06:01:55;9.02;;;2.90;;
41861;SDS011;27537;57.134;-2.136;2022-07-29T06:04:23;10.55;;;3.90;;
41861;SDS011;27537;57.134;-2.136;2022-07-29T06:06:53;11.48;;;4.13;;
41861;SDS011;27537;57.134;-2.136;2022-07-29T06:09:20;10.95;;;3.95;;
41861;SDS011;27537;57.134;-2.136;2022-07-29T06:11:47;13.23;;;5.20;;
41861;SDS011;27537;57.134;-2.136;2022-07-29T06:14:13;13.73;;;3.42;;
41861;SDS011;27537;57.134;-2.136;2022-07-29T06:16:41;11.32;;;3.33;;
41861;SDS011;27537;57.134;-2.136;2022-07-29T06:19:09;16.27;;;4.82;;
41861;SDS011;27537;57.134;-2.136;2022-07-29T06:21:36;14.93;;;4.38;;
41861;SDS011;27537;57.134;-2.136;2022-07-29T06:24:07;10.70;;;3.17;;
41861;SDS011;27537;57.134;-2.136;2022-07-29T06:26:37;8.45;;;2.70;;
41861;SDS011;27537;57.134;-2.136;2022-07-29T06:29:07;9.32;;;3.05;;
41861;SDS011;27537;57.134;-2.136;2022-07-29T06:31:34;12.77;;;3.33;;
41861;SDS011;27537;57.134;-2.136;2022-07-29T06:34:01;8.35;;;2.78;;
41861;SDS011;27537;57.134;-2.136;2022-07-29T06:36:30;11.70;;;3.90;;
41861;SDS011;27537;57.134;-2.136;2022-07-29T06:38:56;11.25;;;4.28;;
41861;SDS011;27537;57.134;-2.136;2022-07-29T06:41:24;15.82;;;3.72;;
41861;SDS011;27537;57.134;-2.136;2022-07-29T06:43:52;10.48;;;2.42;;
41861;SDS011;27537;57.134;-2.136;2022-07-29T06:46:20;10.85;;;2.72;;
41861;SDS011;27537;57.134;-2.136;2022-07-29T06:48:48;15.63;;;3.35;;
41861;SDS011;27537;57.134;-2.136;2022-07-29T06:51:16;10.95;;;3.03;;
41861;SDS011;27537;57.134;-2.136;2022-07-29T06:53:48;14.73;;;3.50;;
41861;SDS011;27537;57.134;-2.136;2022-07-29T06:56:28;12.15;;;4.55;;
41861;SDS011;27537;57.134;-2.136;2022-07-29T06:59:05;18.02;;;4.22;;
41861;SDS011;27537;57.134;-2.136;2022-07-29T07:01:32;12.65;;;3.35;;
41861;SDS011;27537;57.134;-2.136;2022-07-29T07:03:59;11.65;;;2.53;;
41861;SDS011;27537;57.134;-2.136;2022-07-29T07:06:26;8.70;;;2.80;;
41861;SDS011;27537;57.134;-2.136;2022-07-29T07:08:53;9.95;;;2.83;;
41861;SDS011;27537;57.134;-2.136;2022-07-29T07:11:20;11.43;;;3.45;;
41861;SDS011;27537;57.134;-2.136;2022-07-29T07:13:47;11.73;;;3.70;;
41861;SDS011;27537;57.134;-2.136;2022-07-29T07:16:14;14.15;;;3.47;;
41861;SDS011;27537;57.134;-2.136;2022-07-29T07:18:42;10.73;;;2.67;;
41861;SDS011;27537;57.134;-2.136;2022-07-29T07:21:11;15.18;;;5.43;;
41861;SDS011;27537;57.134;-2.136;2022-07-29T07:23:44;11.60;;;3.63;;
41861;SDS011;27537;57.134;-2.136;2022-07-29T07:26:12;15.25;;;4.13;;
41861;SDS011;27537;57.134;-2.136;2022-07-29T07:28:39;14.00;;;3.15;;
41861;SDS011;27537;57.134;-2.136;2022-07-29T07:31:06;9.93;;;2.83;;
41861;SDS011;27537;57.134;-2.136;2022-07-29T07:33:33;15.45;;;5.20;;
41861;SDS011;27537;57.134;-2.136;2022-07-29T07:35:59;14.15;;;3.65;;
41861;SDS011;27537;57.134;-2.136;2022-07-29T07:38:26;14.43;;;3.88;;
41861;SDS011;27537;57.134;-2.136;2022-07-29T07:40:53;12.73;;;3.20;;
41861;SDS011;27537;57.134;-2.136;2022-07-29T07:43:20;14.35;;;3.35;;
41861;SDS011;27537;57.134;-2.136;2022-07-29T07:45:48;8.70;;;3.05;;
41861;SDS011;27537;57.134;-2.136;2022-07-29T07:48:15;14.40;;;4.60;;
41861;SDS011;27537;57.134;-2.136;2022-07-29T07:50:41;10.40;;;3.05;;
41861;SDS011;27537;57.134;-2.136;2022-07-29T07:53:10;9.80;;;3.15;;
41861;SDS011;27537;57.134;-2.136;2022-07-29T07:55:40;8.88;;;2.30;;
41861;SDS011;27537;57.134;-2.136;2022-07-29T07:58:28;11.10;;;3.08;;
41861;SDS011;27537;57.134;-2.136;2022-07-29T08:00:55;12.20;;;4.95;;
41861;SDS011;27537;57.134;-2.136;2022-07-29T08:03:22;10.93;;;3.00;;
41861;SDS011;27537;57.134;-2.136;2022-07-29T08:05:49;8.85;;;2.75;;
41861;SDS011;27537;57.134;-2.136;2022-07-29T08:08:20;11.50;;;3.42;;
41861;SDS011;27537;57.134;-2.136;2022-07-29T08:10:47;8.95;;;2.97;;
41861;SDS011;27537;57.134;-2.136;2022-07-29T08:13:20;13.23;;;4.03;;
41861;SDS011;27537;57.134;-2.136;2022-07-29T08:15:48;9.60;;;2.65;;
41861;SDS011;27537;57.134;-2.136;2022-07-29T08:18:24;7.40;;;2.47;;
41861;SDS011;27537;57.134;-2.136;2022-07-29T08:20:52;12.00;;;2.78;;
41861;SDS011;27537;57.134;-2.136;2022-07-29T08:23:19;8.95;;;2.55;;
41861;SDS011;27537;57.134;-2.136;2022-07-29T08:25:46;12.40;;;3.33;;
41861;SDS011;27537;57.134;-2.136;2022-07-29T08:28:15;12.73;;;2.63;;
41861;SDS011;27537;57.134;-2.136;2022-07-29T08:30:43;11.68;;;2.65;;
41861;SDS011;27537;57.134;-2.136;2022-07-29T08:33:10;11.50;;;2.45;;
41861;SDS011;27537;57.134;-2.136;2022-07-29T08:35:38;12.40;;;2.70;;
41861;SDS011;27537;57.134;-2.136;2022-07-29T08:38:05;9.38;;;2.97;;
41861;SDS011;27537;57.134;-2.136;2022-07-29T08:40:32;8.65;;;2.25;;
41861;SDS011;27537;57.134;-2.136;2022-07-29T08:43:03;9.18;;;2.58;;
41861;SDS011;27537;57.134;-2.136;2022-07-29T08:45:41;9.05;;;1.95;;
41861;SDS011;27537;57.134;-2.136;2022-07-29T08:48:20;8.65;;;2.03;;
41861;SDS011;27537;57.134;-2.136;2022-07-29T08:50:50;12.90;;;2.30;;
41861;SDS011;27537;57.134;-2.136;2022-07-29T08:53:21;5.65;;;1.95;;
41861;SDS011;27537;57.134;-2.136;2022-07-29T08:55:55;7.30;;;2.25;;
41861;SDS011;27537;57.134;-2.136;2022-07-29T08:58:22;7.68;;;2.17;;
41861;SDS011;27537;57.134;-2.136;2022-07-29T09:00:51;8.85;;;2.42;;
41861;SDS011;27537;57.134;-2.136;2022-07-29T09:03:26;9.02;;;2.40;;
41861;SDS011;27537;57.134;-2.136;2022-07-29T09:06:00;15.23;;;2.40;;
41861;SDS011;27537;57.134;-2.136;2022-07-29T09:08:28;13.23;;;2.90;;
41861;SDS011;27537;57.134;-2.136;2022-07-29T09:11:02;10.65;;;2.35;;
41861;SDS011;27537;57.134;-2.136;2022-07-29T09:13:30;11.73;;;3.33;;
41861;SDS011;27537;57.134;-2.136;2022-07-29T09:16:02;11.85;;;2.35;;
41861;SDS011;27537;57.134;-2.136;2022-07-29T09:21:02;12.30;;;2.17;;
41861;SDS011;27537;57.134;-2.136;2022-07-29T09:24:10;8.18;;;2.00;;
41861;SDS011;27537;57.134;-2.136;2022-07-29T09:26:46;7.93;;;2.03;;
41861;SDS011;27537;57.134;-2.136;2022-07-29T09:31:41;9.75;;;2.22;;
41861;SDS011;27537;57.134;-2.136;2022-07-29T09:34:10;10.70;;;2.75;;
41861;SDS011;27537;57.134;-2.136;2022-07-29T09:36:41;10.13;;;2.70;;
41861;SDS011;27537;57.134;-2.136;2022-07-29T09:39:13;10.38;;;2.90;;
41861;SDS011;27537;57.134;-2.136;2022-07-29T09:41:46;10.05;;;2.92;;
41861;SDS011;27537;57.134;-2.136;2022-07-29T09:44:21;10.07;;;2.92;;
41861;SDS011;27537;57.134;-2.136;2022-07-29T09:47:02;9.43;;;2.70;;
41861;SDS011;27537;57.134;-2.136;2022-07-29T09:49:33;8.95;;;3.03;;
41861;SDS011;27537;57.134;-2.136;2022-07-29T09:52:07;11.52;;;2.92;;
41861;SDS011;27537;57.134;-2.136;2022-07-29T09:54:36;8.75;;;2.78;;
41861;SDS011;27537;57.134;-2.136;2022-07-29T09:57:04;9.63;;;2.75;;
41861;SDS011;27537;57.134;-2.136;2022-07-29T10:00:05;7.93;;;2.35;;
41861;SDS011;27537;57.134;-2.136;2022-07-29T10:02:36;10.95;;;2.60;;
41861;SDS011;27537;57.134;-2.136;2022-07-29T10:05:06;11.38;;;2.70;;
41861;SDS011;27537;57.134;-2.136;2022-07-29T10:07:46;14.15;;;3.35;;
41861;SDS011;27537;57.134;-2.136;2022-07-29T10:10:25;8.93;;;2.50;;
41861;SDS011;27537;57.134;-2.136;2022-07-29T10:12:55;12.02;;;3.13;;
41861;SDS011;27537;57.134;-2.136;2022-07-29T10:15:38;8.80;;;2.38;;
41861;SDS011;27537;57.134;-2.136;2022-07-29T10:18:08;12.07;;;2.33;;
41861;SDS011;27537;57.134;-2.136;2022-07-29T10:20:36;10.00;;;2.97;;
41861;SDS011;27537;57.134;-2.136;2022-07-29T10:23:04;10.35;;;2.85;;
41861;SDS011;27537;57.134;-2.136;2022-07-29T10:25:31;10.25;;;2.88;;
41861;SDS011;27537;57.134;-2.136;2022-07-29T10:27:58;8.65;;;2.47;;
41861;SDS011;27537;57.134;-2.136;2022-07-29T10:30:27;10.80;;;2.55;;
41861;SDS011;27537;57.134;-2.136;2022-07-29T10:35:45;6.13;;;2.25;;
41861;SDS011;27537;57.134;-2.136;2022-07-29T10:44:14;7.82;;;2.38;;
41861;SDS011;27537;57.134;-2.136;2022-07-29T10:46:48;8.15;;;1.85;;
41861;SDS011;27537;57.134;-2.136;2022-07-29T10:49:16;10.15;;;2.67;;
41861;SDS011;27537;57.134;-2.136;2022-07-29T10:51:57;12.05;;;2.67;;
41861;SDS011;27537;57.134;-2.136;2022-07-29T10:59:49;10.68;;;2.85;;
41861;SDS011;27537;57.134;-2.136;2022-07-29T11:05:18;6.35;;;2.20;;
41861;SDS011;27537;57.134;-2.136;2022-07-29T11:10:45;10.10;;;2.80;;
41861;SDS011;27537;57.134;-2.136;2022-07-29T11:13:44;14.23;;;4.00;;
41861;SDS011;27537;57.134;-2.136;2022-07-29T11:16:09;7.88;;;2.40;;
41861;SDS011;27537;57.134;-2.136;2022-07-29T11:21:40;10.00;;;2.75;;
41861;SDS011;27537;57.134;-2.136;2022-07-29T11:24:31;15.13;;;3.30;;
41861;SDS011;27537;57.134;-2.136;2022-07-29T11:27:13;7.38;;;2.30;;
41861;SDS011;27537;57.134;-2.136;2022-07-29T11:32:16;7.85;;;2.17;;
41861;SDS011;27537;57.134;-2.136;2022-07-29T11:34:49;9.00;;;2.28;;
41861;SDS011;27537;57.134;-2.136;2022-07-29T11:37:44;8.10;;;2.30;;
41861;SDS011;27537;57.134;-2.136;2022-07-29T11:40:23;10.30;;;3.42;;
41861;SDS011;27537;57.134;-2.136;2022-07-29T11:42:50;11.02;;;2.67;;
41861;SDS011;27537;57.134;-2.136;2022-07-29T11:48:05;9.00;;;2.75;;
41861;SDS011;27537;57.134;-2.136;2022-07-29T11:50:53;7.00;;;2.13;;
41861;SDS011;27537;57.134;-2.136;2022-07-29T11:53:23;10.65;;;3.00;;
41861;SDS011;27537;57.134;-2.136;2022-07-29T11:55:52;8.25;;;2.92;;
41861;SDS011;27537;57.134;-2.136;2022-07-29T11:58:23;7.70;;;2.47;;
41861;SDS011;27537;57.134;-2.136;2022-07-29T12:00:52;7.53;;;2.47;;
41861;SDS011;27537;57.134;-2.136;2022-07-29T12:03:28;7.88;;;2.00;;
41861;SDS011;27537;57.134;-2.136;2022-07-29T12:06:01;7.60;;;2.20;;
41861;SDS011;27537;57.134;-2.136;2022-07-29T12:08:46;9.38;;;2.63;;
41861;SDS011;27537;57.134;-2.136;2022-07-29T12:11:19;9.75;;;2.63;;
41861;SDS011;27537;57.134;-2.136;2022-07-29T12:13:49;10.77;;;2.60;;
41861;SDS011;27537;57.134;-2.136;2022-07-29T12:16:18;9.68;;;2.50;;
41861;SDS011;27537;57.134;-2.136;2022-07-29T12:18:55;8.43;;;2.15;;
41861;SDS011;27537;57.134;-2.136;2022-07-29T12:23:56;9.30;;;2.70;;
41861;SDS011;27537;57.134;-2.136;2022-07-29T12:26:34;12.07;;;2.78;;
41861;SDS011;27537;57.134;-2.136;2022-07-29T12:29:02;8.43;;;2.40;;
41861;SDS011;27537;57.134;-2.136;2022-07-29T12:31:29;9.80;;;2.80;;
41861;SDS011;27537;57.134;-2.136;2022-07-29T12:34:13;15.48;;;3.28;;
41861;SDS011;27537;57.134;-2.136;2022-07-29T12:36:42;10.00;;;2.70;;
41861;SDS011;27537;57.134;-2.136;2022-07-29T12:39:10;10.70;;;3.20;;
41861;SDS011;27537;57.134;-2.136;2022-07-29T12:41:37;10.05;;;2.67;;
41861;SDS011;27537;57.134;-2.136;2022-07-29T12:44:05;13.82;;;3.30;;
41861;SDS011;27537;57.134;-2.136;2022-07-29T12:46:32;11.25;;;2.88;;
41861;SDS011;27537;57.134;-2.136;2022-07-29T12:48:59;10.32;;;2.78;;
41861;SDS011;27537;57.134;-2.136;2022-07-29T12:54:03;10.07;;;2.83;;
41861;SDS011;27537;57.134;-2.136;2022-07-29T12:56:38;10.65;;;2.88;;
41861;SDS011;27537;57.134;-2.136;2022-07-29T12:59:19;9.87;;;3.10;;
41861;SDS011;27537;57.134;-2.136;2022-07-29T13:01:49;8.25;;;2.53;;
41861;SDS011;27537;57.134;-2.136;2022-07-29T13:04:25;8.55;;;2.42;;
41861;SDS011;27537;57.134;-2.136;2022-07-29T13:07:03;10.35;;;3.00;;
41861;SDS011;27537;57.134;-2.136;2022-07-29T13:09:43;11.35;;;3.13;;
41861;SDS011;27537;57.134;-2.136;2022-07-29T13:12:12;11.07;;;2.85;;
41861;SDS011;27537;57.134;-2.136;2022-07-29T13:14:44;14.68;;;3.70;;
41861;SDS011;27537;57.134;-2.136;2022-07-29T13:19:44;13.30;;;4.03;;
41861;SDS011;27537;57.134;-2.136;2022-07-29T13:22:13;12.60;;;4.50;;
41861;SDS011;27537;57.134;-2.136;2022-07-29T13:24:48;12.50;;;3.75;;
41861;SDS011;27537;57.134;-2.136;2022-07-29T13:27:20;13.73;;;4.18;;
41861;SDS011;27537;57.134;-2.136;2022-07-29T13:29:48;14.35;;;3.55;;
41861;SDS011;27537;57.134;-2.136;2022-07-29T13:32:17;11.60;;;3.22;;
41861;SDS011;27537;57.134;-2.136;2022-07-29T13:34:57;14.18;;;3.72;;
41861;SDS011;27537;57.134;-2.136;2022-07-29T13:37:30;13.70;;;4.30;;
41861;SDS011;27537;57.134;-2.136;2022-07-29T13:40:01;13.05;;;3.30;;
41861;SDS011;27537;57.134;-2.136;2022-07-29T13:42:29;10.95;;;3.97;;
41861;SDS011;27537;57.134;-2.136;2022-07-29T13:44:58;15.05;;;3.97;;
41861;SDS011;27537;57.134;-2.136;2022-07-29T13:47:25;15.38;;;4.65;;
41861;SDS011;27537;57.134;-2.136;2022-07-29T13:49:58;11.85;;;4.47;;
41861;SDS011;27537;57.134;-2.136;2022-07-29T13:52:31;10.55;;;3.72;;
41861;SDS011;27537;57.134;-2.136;2022-07-29T13:54:58;15.63;;;4.60;;
41861;SDS011;27537;57.134;-2.136;2022-07-29T13:57:24;13.00;;;3.05;;
41861;SDS011;27537;57.134;-2.136;2022-07-29T13:59:51;16.13;;;4.05;;
41861;SDS011;27537;57.134;-2.136;2022-07-29T14:02:20;11.88;;;3.25;;
41861;SDS011;27537;57.134;-2.136;2022-07-29T14:04:51;12.40;;;3.88;;
41861;SDS011;27537;57.134;-2.136;2022-07-29T14:07:19;15.52;;;4.63;;
41861;SDS011;27537;57.134;-2.136;2022-07-29T14:09:46;12.63;;;3.80;;
41861;SDS011;27537;57.134;-2.136;2022-07-29T14:12:12;11.63;;;4.38;;
41861;SDS011;27537;57.134;-2.136;2022-07-29T14:14:39;12.73;;;3.63;;
41861;SDS011;27537;57.134;-2.136;2022-07-29T14:17:06;17.45;;;4.40;;
41861;SDS011;27537;57.134;-2.136;2022-07-29T14:19:34;12.40;;;3.60;;
41861;SDS011;27537;57.134;-2.136;2022-07-29T14:22:06;14.73;;;4.95;;
41861;SDS011;27537;57.134;-2.136;2022-07-29T14:24:36;14.13;;;4.13;;
41861;SDS011;27537;57.134;-2.136;2022-07-29T14:27:04;11.82;;;3.80;;
41861;SDS011;27537;57.134;-2.136;2022-07-29T14:29:31;11.82;;;3.83;;
41861;SDS011;27537;57.134;-2.136;2022-07-29T14:32:06;13.30;;;4.20;;
41861;SDS011;27537;57.134;-2.136;2022-07-29T14:34:35;11.77;;;3.13;;
41861;SDS011;27537;57.134;-2.136;2022-07-29T14:37:03;14.63;;;4.50;;
41861;SDS011;27537;57.134;-2.136;2022-07-29T14:39:41;13.10;;;3.45;;
41861;SDS011;27537;57.134;-2.136;2022-07-29T14:42:09;13.40;;;4.53;;
41861;SDS011;27537;57.134;-2.136;2022-07-29T14:44:37;15.70;;;4.15;;
41861;SDS011;27537;57.134;-2.136;2022-07-29T14:47:04;12.65;;;3.33;;
41861;SDS011;27537;57.134;-2.136;2022-07-29T14:49:36;16.17;;;4.43;;
41861;SDS011;27537;57.134;-2.136;2022-07-29T14:54:33;14.05;;;4.15;;
41861;SDS011;27537;57.134;-2.136;2022-07-29T14:57:00;11.52;;;4.45;;
41861;SDS011;27537;57.134;-2.136;2022-07-29T14:59:27;14.48;;;4.68;;
41861;SDS011;27537;57.134;-2.136;2022-07-29T15:01:53;15.60;;;4.30;;
41861;SDS011;27537;57.134;-2.136;2022-07-29T15:04:20;17.10;;;4.28;;
41861;SDS011;27537;57.134;-2.136;2022-07-29T15:06:47;20.60;;;5.43;;
41861;SDS011;27537;57.134;-2.136;2022-07-29T15:09:14;15.48;;;4.57;;
41861;SDS011;27537;57.134;-2.136;2022-07-29T15:11:41;12.38;;;4.20;;
41861;SDS011;27537;57.134;-2.136;2022-07-29T15:14:08;13.57;;;3.42;;
41861;SDS011;27537;57.134;-2.136;2022-07-29T15:16:35;13.80;;;3.80;;
41861;SDS011;27537;57.134;-2.136;2022-07-29T15:19:03;12.77;;;3.97;;
41861;SDS011;27537;57.134;-2.136;2022-07-29T15:21:30;18.10;;;4.47;;
41861;SDS011;27537;57.134;-2.136;2022-07-29T15:23:58;13.70;;;3.83;;
41861;SDS011;27537;57.134;-2.136;2022-07-29T15:26:25;14.75;;;4.05;;
41861;SDS011;27537;57.134;-2.136;2022-07-29T15:28:51;15.55;;;3.88;;
41861;SDS011;27537;57.134;-2.136;2022-07-29T15:31:18;11.68;;;3.80;;
41861;SDS011;27537;57.134;-2.136;2022-07-29T15:33:45;14.23;;;3.97;;
41861;SDS011;27537;57.134;-2.136;2022-07-29T15:36:12;10.73;;;3.42;;
41861;SDS011;27537;57.134;-2.136;2022-07-29T15:38:59;12.52;;;3.67;;
41861;SDS011;27537;57.134;-2.136;2022-07-29T15:41:26;11.57;;;3.65;;
41861;SDS011;27537;57.134;-2.136;2022-07-29T15:43:53;13.93;;;3.33;;
41861;SDS011;27537;57.134;-2.136;2022-07-29T15:46:19;10.85;;;2.85;;